Austin, Missouri
Current Conditions -  °F | °C
As of 1:53 AM on Tuesday 27 Jan 2015 (Local Time) from KOJC Reporting Station
Clear Clear  
Wind Chill: 37°   Ceiling: Unl
Heat Index: 41°   Visibility: 10mi
Dew Point: 31°   Wind: 6mph
Humidity: 67%   Direction: 330°NNW
Pressure: 30.05"   Gusts: NA
Location:  38.5148°N, 94.3768°W
Report Text: KOJC 270753Z AUTO 33005KT 10SM CLR 05/M01 A3005 RMK AO2 SLP176 T00501006
Loading
Personal Weather Stations






























Interactive Weather Map New forecast layout! Learn more

10-Day Weather Forecast

Advertisements
Track Severe Weather on mobile